Create Tblcommutelog Verified Points Advance Search
| # | Trip ID | Id Commuter | Trip Date | Trip Num | Current Lat | Current Lng | Delta Distance | Current Time | Activity | Activity Confidence | Current Speed | |
|---|---|---|---|---|---|---|---|---|---|---|---|---|
| 72101 | 260218_789019_16496249_0736 | 789019 | (not set) | (not set) | 38.971334038459 | -76.933839368261 | 12.4151 | 2026-02-18 08:29:54 | in_vehicle | 100 | 10.228258245639 | |
| 72102 | 260218_789019_16496249_0736 | 789019 | (not set) | (not set) | 38.962478688753 | -76.961890978972 | 12.4151 | 2026-02-18 08:29:54 | in_vehicle | 100 | -0.44703925898772 | |
| 72103 | 260218_696035_16485730_0724 | 696035 | (not set) | (not set) | 38.889826679268 | -76.996333904247 | 28.7134 | 2026-02-18 08:29:55 | in_vehicle | 100 | 4.0635868641984 | |
| 72104 | 260218_770910_16486049_0813 | 770910 | (not set) | (not set) | 38.892825021911 | -77.022274510403 | 1.0989 | 2026-02-18 08:29:50 | in_vehicle | 100 | -0.44703925898772 | |
| 72105 | 260218_787203_16483549_0808 | 787203 | (not set) | (not set) | 39.334938777647 | -76.67118499994 | 9.3958 | 2026-02-18 08:29:56 | in_vehicle | 100 | -0.44703925898772 | |
| 72106 | 260218_780330_6461772_0821 | 780330 | (not set) | (not set) | 38.988281275395 | -77.075533669351 | 1.2698 | 2026-02-18 08:29:56 | still | 33 | 0 | |
| 72107 | 260218_785147_16514010_0722 | 785147 | (not set) | (not set) | 38.980944196395 | -77.476634890057 | 44.106 | 2026-02-18 08:29:55 | in_vehicle | 100 | 9.0614857796812 | |
| 72108 | 260218_704403_6438355_0822 | 704403 | (not set) | (not set) | 38.797319183333 | -77.1689549 | 1.802 | 2026-02-18 08:29:56 | in_vehicle | 100 | 7.9125948840827 | |
| 72109 | 260218_704403_6438355_0822 | 704403 | (not set) | (not set) | 38.797319183333 | -77.1689549 | 1.802 | 2026-02-18 08:29:56 | in_vehicle | 100 | 7.9125948840827 | |
| 72110 | 260218_781315_16512165_0825 | 781315 | (not set) | (not set) | 38.910744458647 | -77.066860039853 | 0.9157 | 2026-02-18 08:29:57 | unknown | 100 | 3.3438536572282 | |
| 72111 | 260218_781315_16512165_0825 | 781315 | (not set) | (not set) | 38.910744458647 | -77.066860039853 | 0.9157 | 2026-02-18 08:29:57 | unknown | 100 | 3.3438536572282 | |
| 72112 | 260218_788559_16515588_0815 | 788559 | (not set) | (not set) | 38.999100521297 | -77.026605935252 | 1.7062 | 2026-02-18 08:29:57 | on_bicycle | 100 | -0.44703925898772 | |
| 72113 | 260218_788559_16515588_0815 | 788559 | (not set) | (not set) | 38.999100521297 | -77.026605935252 | 1.7062 | 2026-02-18 08:29:57 | on_bicycle | 100 | -0.44703925898772 | |
| 72114 | 260218_787203_16483549_0808 | 787203 | (not set) | (not set) | 39.334717160127 | -76.670492906195 | 9.549 | 2026-02-18 08:29:58 | in_vehicle | 100 | -0.44703925898772 | |
| 72115 | 260218_773187_16453504_0738 | 773187 | (not set) | (not set) | 38.811391531478 | -77.041079192798 | 10.3369 | 2026-02-18 08:29:58 | in_vehicle | 100 | 2.4855382799717 | |
| 72116 | 260218_773187_16453504_0738 | 773187 | (not set) | (not set) | 38.811391531478 | -77.041079192798 | 10.3369 | 2026-02-18 08:29:58 | in_vehicle | 100 | 2.4855382799717 | |
| 72117 | 260218_789668_16432192_0714 | 789668 | (not set) | (not set) | 38.837821625379 | -76.924296235669 | 44.5946 | 2026-02-18 08:29:56 | unknown | 100 | 9.7901597718312 | |
| 72118 | 260218_787203_16483549_0808 | 787203 | (not set) | (not set) | 39.33467625644 | -76.669901730564 | 9.549 | 2026-02-18 08:30:00 | in_vehicle | 100 | -0.44703925898772 | |
| 72119 | 260218_788559_16515588_0815 | 788559 | (not set) | (not set) | 38.999403608068 | -77.027107263056 | 1.7403 | 2026-02-18 08:29:59 | on_bicycle | 100 | 2.4497751392527 | |
| 72120 | 260218_772217_6417139_0809 | 772217 | (not set) | (not set) | 38.874169353767 | -77.052556265911 | 12.7995 | 2026-02-18 08:30:01 | in_vehicle | 100 | 9.4817026831296 |